sensor_id;sensor_type;location;lat;lon;timestamp;P1;durP1;ratioP1;P2;durP2;ratioP2
57231;SDS011;43488;46.934;8.276;2023-06-19T00:00:36;665.70;;;362.13;;
57231;SDS011;43488;46.934;8.276;2023-06-19T00:03:07;664.83;;;418.08;;
57231;SDS011;43488;46.934;8.276;2023-06-19T00:05:35;661.42;;;365.63;;
57231;SDS011;43488;46.934;8.276;2023-06-19T00:08:03;659.67;;;353.95;;
57231;SDS011;43488;46.934;8.276;2023-06-19T00:10:32;666.28;;;366.75;;
57231;SDS011;43488;46.934;8.276;2023-06-19T00:13:00;667.13;;;431.17;;
57231;SDS011;43488;46.934;8.276;2023-06-19T00:15:28;664.85;;;433.58;;
57231;SDS011;43488;46.934;8.276;2023-06-19T00:17:56;659.50;;;421.98;;
57231;SDS011;43488;46.934;8.276;2023-06-19T00:20:24;657.75;;;361.17;;
57231;SDS011;43488;46.934;8.276;2023-06-19T00:22:51;658.42;;;421.90;;
57231;SDS011;43488;46.934;8.276;2023-06-19T00:25:19;654.38;;;363.23;;
57231;SDS011;43488;46.934;8.276;2023-06-19T00:27:46;650.83;;;352.25;;
57231;SDS011;43488;46.934;8.276;2023-06-19T00:30:15;655.50;;;423.13;;
57231;SDS011;43488;46.934;8.276;2023-06-19T00:32:42;623.33;;;358.75;;
57231;SDS011;43488;46.934;8.276;2023-06-19T00:35:14;623.83;;;356.60;;
57231;SDS011;43488;46.934;8.276;2023-06-19T00:37:44;644.63;;;352.10;;
57231;SDS011;43488;46.934;8.276;2023-06-19T00:40:12;640.10;;;428.48;;
57231;SDS011;43488;46.934;8.276;2023-06-19T00:43:03;630.75;;;359.13;;
57231;SDS011;43488;46.934;8.276;2023-06-19T00:45:32;644.55;;;360.92;;
57231;SDS011;43488;46.934;8.276;2023-06-19T00:47:59;644.83;;;432.65;;
57231;SDS011;43488;46.934;8.276;2023-06-19T00:50:27;623.55;;;351.50;;
57231;SDS011;43488;46.934;8.276;2023-06-19T00:52:57;637.22;;;358.27;;
57231;SDS011;43488;46.934;8.276;2023-06-19T00:55:28;626.22;;;428.00;;
57231;SDS011;43488;46.934;8.276;2023-06-19T00:57:59;623.20;;;350.73;;
57231;SDS011;43488;46.934;8.276;2023-06-19T01:00:28;616.30;;;340.40;;
57231;SDS011;43488;46.934;8.276;2023-06-19T01:02:55;611.75;;;347.60;;
57231;SDS011;43488;46.934;8.276;2023-06-19T01:05:23;622.53;;;355.98;;
57231;SDS011;43488;46.934;8.276;2023-06-19T01:07:53;624.28;;;354.80;;
57231;SDS011;43488;46.934;8.276;2023-06-19T01:12:56;613.88;;;334.83;;
57231;SDS011;43488;46.934;8.276;2023-06-19T01:15:38;656.53;;;432.40;;
57231;SDS011;43488;46.934;8.276;2023-06-19T01:18:08;656.55;;;424.60;;
57231;SDS011;43488;46.934;8.276;2023-06-19T01:20:37;656.17;;;361.30;;
57231;SDS011;43488;46.934;8.276;2023-06-19T01:23:07;657.70;;;360.25;;
57231;SDS011;43488;46.934;8.276;2023-06-19T01:25:35;652.97;;;358.15;;
57231;SDS011;43488;46.934;8.276;2023-06-19T01:28:03;660.50;;;363.08;;
57231;SDS011;43488;46.934;8.276;2023-06-19T01:30:36;661.80;;;433.17;;
57231;SDS011;43488;46.934;8.276;2023-06-19T01:35:57;654.35;;;363.70;;
57231;SDS011;43488;46.934;8.276;2023-06-19T01:38:27;660.42;;;428.73;;
57231;SDS011;43488;46.934;8.276;2023-06-19T01:40:58;655.47;;;355.77;;
57231;SDS011;43488;46.934;8.276;2023-06-19T01:43:27;650.33;;;352.75;;
57231;SDS011;43488;46.934;8.276;2023-06-19T01:45:58;660.97;;;363.13;;
57231;SDS011;43488;46.934;8.276;2023-06-19T01:48:27;661.75;;;430.27;;
57231;SDS011;43488;46.934;8.276;2023-06-19T01:50:55;650.75;;;353.40;;
57231;SDS011;43488;46.934;8.276;2023-06-19T01:53:22;659.60;;;424.50;;
57231;SDS011;43488;46.934;8.276;2023-06-19T01:55:50;663.58;;;431.35;;
57231;SDS011;43488;46.934;8.276;2023-06-19T01:58:17;659.60;;;422.75;;
57231;SDS011;43488;46.934;8.276;2023-06-19T02:00:45;657.53;;;358.30;;
57231;SDS011;43488;46.934;8.276;2023-06-19T02:03:13;663.42;;;426.58;;
57231;SDS011;43488;46.934;8.276;2023-06-19T02:05:41;652.78;;;355.33;;
57231;SDS011;43488;46.934;8.276;2023-06-19T02:08:09;661.05;;;359.75;;
57231;SDS011;43488;46.934;8.276;2023-06-19T02:10:37;658.50;;;361.42;;
57231;SDS011;43488;46.934;8.276;2023-06-19T02:13:05;661.90;;;431.15;;
57231;SDS011;43488;46.934;8.276;2023-06-19T02:15:32;659.08;;;363.15;;
57231;SDS011;43488;46.934;8.276;2023-06-19T02:18:00;654.00;;;356.38;;
57231;SDS011;43488;46.934;8.276;2023-06-19T02:20:27;660.25;;;424.15;;
57231;SDS011;43488;46.934;8.276;2023-06-19T02:22:54;663.35;;;426.25;;
57231;SDS011;43488;46.934;8.276;2023-06-19T02:25:23;662.92;;;433.80;;
57231;SDS011;43488;46.934;8.276;2023-06-19T02:27:50;659.50;;;417.23;;
57231;SDS011;43488;46.934;8.276;2023-06-19T02:30:18;658.97;;;363.02;;
57231;SDS011;43488;46.934;8.276;2023-06-19T02:32:45;662.95;;;428.58;;
57231;SDS011;43488;46.934;8.276;2023-06-19T02:35:14;657.35;;;360.63;;
57231;SDS011;43488;46.934;8.276;2023-06-19T02:37:43;652.15;;;352.08;;
57231;SDS011;43488;46.934;8.276;2023-06-19T02:40:13;659.20;;;428.42;;
57231;SDS011;43488;46.934;8.276;2023-06-19T02:42:41;660.75;;;365.70;;
57231;SDS011;43488;46.934;8.276;2023-06-19T02:45:08;663.70;;;432.10;;
57231;SDS011;43488;46.934;8.276;2023-06-19T02:47:35;652.47;;;350.92;;
57231;SDS011;43488;46.934;8.276;2023-06-19T02:50:03;663.22;;;425.17;;
57231;SDS011;43488;46.934;8.276;2023-06-19T02:52:32;659.20;;;357.88;;
57231;SDS011;43488;46.934;8.276;2023-06-19T02:55:00;666.50;;;440.45;;
57231;SDS011;43488;46.934;8.276;2023-06-19T02:57:28;661.42;;;427.38;;
57231;SDS011;43488;46.934;8.276;2023-06-19T02:59:55;657.35;;;359.88;;
57231;SDS011;43488;46.934;8.276;2023-06-19T03:02:22;656.35;;;356.00;;
57231;SDS011;43488;46.934;8.276;2023-06-19T03:04:51;664.15;;;440.05;;
57231;SDS011;43488;46.934;8.276;2023-06-19T03:07:19;659.53;;;360.77;;
57231;SDS011;43488;46.934;8.276;2023-06-19T03:09:47;656.30;;;428.45;;
57231;SDS011;43488;46.934;8.276;2023-06-19T03:12:14;650.17;;;355.13;;
57231;SDS011;43488;46.934;8.276;2023-06-19T03:14:42;658.47;;;371.63;;
57231;SDS011;43488;46.934;8.276;2023-06-19T03:17:09;658.80;;;424.75;;
57231;SDS011;43488;46.934;8.276;2023-06-19T03:19:39;654.15;;;364.15;;
57231;SDS011;43488;46.934;8.276;2023-06-19T03:22:07;657.92;;;370.05;;
57231;SDS011;43488;46.934;8.276;2023-06-19T03:24:34;648.88;;;365.35;;
57231;SDS011;43488;46.934;8.276;2023-06-19T03:27:02;645.47;;;358.90;;
57231;SDS011;43488;46.934;8.276;2023-06-19T03:29:29;620.53;;;426.80;;
57231;SDS011;43488;46.934;8.276;2023-06-19T03:31:57;627.40;;;360.08;;
57231;SDS011;43488;46.934;8.276;2023-06-19T03:34:24;633.25;;;437.67;;
57231;SDS011;43488;46.934;8.276;2023-06-19T03:36:52;643.53;;;355.85;;
57231;SDS011;43488;46.934;8.276;2023-06-19T03:39:20;639.53;;;430.63;;
57231;SDS011;43488;46.934;8.276;2023-06-19T03:41:47;636.88;;;356.73;;
57231;SDS011;43488;46.934;8.276;2023-06-19T03:44:15;651.05;;;443.85;;
57231;SDS011;43488;46.934;8.276;2023-06-19T03:46:42;638.28;;;362.00;;
57231;SDS011;43488;46.934;8.276;2023-06-19T03:49:10;640.67;;;354.40;;
57231;SDS011;43488;46.934;8.276;2023-06-19T03:51:38;663.08;;;435.48;;
57231;SDS011;43488;46.934;8.276;2023-06-19T03:54:05;664.22;;;440.55;;
57231;SDS011;43488;46.934;8.276;2023-06-19T03:56:32;675.60;;;436.60;;
57231;SDS011;43488;46.934;8.276;2023-06-19T03:59:00;683.63;;;437.50;;
57231;SDS011;43488;46.934;8.276;2023-06-19T04:01:27;684.53;;;441.58;;
57231;SDS011;43488;46.934;8.276;2023-06-19T04:03:54;680.00;;;376.75;;
57231;SDS011;43488;46.934;8.276;2023-06-19T04:06:22;675.50;;;364.27;;
57231;SDS011;43488;46.934;8.276;2023-06-19T04:08:49;675.70;;;370.58;;
57231;SDS011;43488;46.934;8.276;2023-06-19T04:11:17;670.63;;;363.38;;
57231;SDS011;43488;46.934;8.276;2023-06-19T04:13:44;680.97;;;443.98;;
57231;SDS011;43488;46.934;8.276;2023-06-19T04:16:21;684.40;;;440.75;;
57231;SDS011;43488;46.934;8.276;2023-06-19T04:18:49;675.17;;;374.20;;
57231;SDS011;43488;46.934;8.276;2023-06-19T04:21:16;680.85;;;437.33;;
57231;SDS011;43488;46.934;8.276;2023-06-19T04:23:44;676.40;;;442.42;;
57231;SDS011;43488;46.934;8.276;2023-06-19T04:26:11;669.75;;;368.02;;
57231;SDS011;43488;46.934;8.276;2023-06-19T04:28:39;673.33;;;442.60;;
57231;SDS011;43488;46.934;8.276;2023-06-19T04:31:06;659.97;;;371.30;;
57231;SDS011;43488;46.934;8.276;2023-06-19T04:33:34;644.03;;;370.20;;
57231;SDS011;43488;46.934;8.276;2023-06-19T04:36:03;661.22;;;433.83;;
57231;SDS011;43488;46.934;8.276;2023-06-19T04:38:30;680.72;;;438.65;;
57231;SDS011;43488;46.934;8.276;2023-06-19T04:40:57;655.05;;;367.95;;
57231;SDS011;43488;46.934;8.276;2023-06-19T04:43:25;670.53;;;437.90;;
57231;SDS011;43488;46.934;8.276;2023-06-19T04:45:52;661.25;;;436.95;;
57231;SDS011;43488;46.934;8.276;2023-06-19T04:48:20;653.63;;;435.75;;
57231;SDS011;43488;46.934;8.276;2023-06-19T04:50:52;661.65;;;439.63;;
57231;SDS011;43488;46.934;8.276;2023-06-19T04:53:19;662.78;;;371.45;;
57231;SDS011;43488;46.934;8.276;2023-06-19T04:55:47;674.78;;;446.98;;
57231;SDS011;43488;46.934;8.276;2023-06-19T04:58:16;667.53;;;446.38;;
57231;SDS011;43488;46.934;8.276;2023-06-19T05:00:44;670.20;;;386.25;;
57231;SDS011;43488;46.934;8.276;2023-06-19T05:05:44;644.63;;;358.90;;
57231;SDS011;43488;46.934;8.276;2023-06-19T05:08:12;617.60;;;335.83;;
57231;SDS011;43488;46.934;8.276;2023-06-19T05:10:40;667.28;;;373.58;;
57231;SDS011;43488;46.934;8.276;2023-06-19T05:13:08;677.22;;;447.13;;
57231;SDS011;43488;46.934;8.276;2023-06-19T05:15:35;671.33;;;366.52;;
57231;SDS011;43488;46.934;8.276;2023-06-19T05:18:02;677.72;;;439.17;;
57231;SDS011;43488;46.934;8.276;2023-06-19T05:20:29;680.13;;;442.05;;
57231;SDS011;43488;46.934;8.276;2023-06-19T05:22:57;669.35;;;376.58;;
57231;SDS011;43488;46.934;8.276;2023-06-19T05:25:24;669.92;;;369.60;;
57231;SDS011;43488;46.934;8.276;2023-06-19T05:27:51;677.40;;;443.25;;
57231;SDS011;43488;46.934;8.276;2023-06-19T05:30:18;681.08;;;445.90;;
57231;SDS011;43488;46.934;8.276;2023-06-19T05:32:46;678.47;;;447.52;;
57231;SDS011;43488;46.934;8.276;2023-06-19T05:35:13;672.50;;;369.95;;
57231;SDS011;43488;46.934;8.276;2023-06-19T05:37:40;678.08;;;447.27;;
57231;SDS011;43488;46.934;8.276;2023-06-19T05:40:10;667.53;;;370.02;;
57231;SDS011;43488;46.934;8.276;2023-06-19T05:42:39;675.92;;;379.77;;
57231;SDS011;43488;46.934;8.276;2023-06-19T05:45:07;685.03;;;449.13;;
57231;SDS011;43488;46.934;8.276;2023-06-19T05:47:35;676.65;;;377.98;;
57231;SDS011;43488;46.934;8.276;2023-06-19T05:50:02;672.45;;;371.83;;
57231;SDS011;43488;46.934;8.276;2023-06-19T05:52:30;675.30;;;373.00;;
57231;SDS011;43488;46.934;8.276;2023-06-19T05:54:57;678.40;;;370.60;;
57231;SDS011;43488;46.934;8.276;2023-06-19T05:57:25;677.40;;;373.13;;
57231;SDS011;43488;46.934;8.276;2023-06-19T05:59:52;683.83;;;375.23;;
57231;SDS011;43488;46.934;8.276;2023-06-19T06:02:20;695.75;;;452.73;;
57231;SDS011;43488;46.934;8.276;2023-06-19T06:04:47;687.33;;;379.48;;
57231;SDS011;43488;46.934;8.276;2023-06-19T06:07:14;692.92;;;452.38;;
57231;SDS011;43488;46.934;8.276;2023-06-19T06:09:42;695.97;;;437.50;;
57231;SDS011;43488;46.934;8.276;2023-06-19T06:12:10;699.97;;;440.33;;
57231;SDS011;43488;46.934;8.276;2023-06-19T06:14:38;682.40;;;369.88;;
57231;SDS011;43488;46.934;8.276;2023-06-19T06:17:08;697.78;;;437.73;;
57231;SDS011;43488;46.934;8.276;2023-06-19T06:19:37;703.00;;;452.83;;
57231;SDS011;43488;46.934;8.276;2023-06-19T06:22:05;703.28;;;450.88;;
57231;SDS011;43488;46.934;8.276;2023-06-19T06:24:32;693.38;;;432.27;;
57231;SDS011;43488;46.934;8.276;2023-06-19T06:27:00;690.42;;;380.17;;
57231;SDS011;43488;46.934;8.276;2023-06-19T06:29:27;696.70;;;448.63;;
57231;SDS011;43488;46.934;8.276;2023-06-19T06:32:02;699.88;;;453.17;;
57231;SDS011;43488;46.934;8.276;2023-06-19T06:34:34;682.25;;;367.55;;
57231;SDS011;43488;46.934;8.276;2023-06-19T06:37:02;697.97;;;449.15;;
57231;SDS011;43488;46.934;8.276;2023-06-19T06:39:29;687.17;;;376.70;;
57231;SDS011;43488;46.934;8.276;2023-06-19T06:42:02;687.45;;;379.25;;
57231;SDS011;43488;46.934;8.276;2023-06-19T06:44:29;688.78;;;375.17;;
57231;SDS011;43488;46.934;8.276;2023-06-19T06:46:59;700.85;;;455.52;;
57231;SDS011;43488;46.934;8.276;2023-06-19T06:49:26;701.25;;;445.85;;
57231;SDS011;43488;46.934;8.276;2023-06-19T06:51:54;692.47;;;381.83;;
57231;SDS011;43488;46.934;8.276;2023-06-19T06:54:22;702.65;;;436.92;;
57231;SDS011;43488;46.934;8.276;2023-06-19T06:56:49;685.50;;;377.17;;
57231;SDS011;43488;46.934;8.276;2023-06-19T06:59:16;694.45;;;385.20;;
57231;SDS011;43488;46.934;8.276;2023-06-19T07:01:43;698.58;;;457.77;;
57231;SDS011;43488;46.934;8.276;2023-06-19T07:04:11;701.15;;;434.02;;
57231;SDS011;43488;46.934;8.276;2023-06-19T07:06:38;693.67;;;386.55;;
57231;SDS011;43488;46.934;8.276;2023-06-19T07:09:09;690.58;;;376.42;;
57231;SDS011;43488;46.934;8.276;2023-06-19T07:11:37;696.38;;;382.35;;
57231;SDS011;43488;46.934;8.276;2023-06-19T07:14:05;700.47;;;379.98;;
57231;SDS011;43488;46.934;8.276;2023-06-19T07:16:32;699.42;;;386.27;;
57231;SDS011;43488;46.934;8.276;2023-06-19T07:18:59;712.35;;;446.70;;
57231;SDS011;43488;46.934;8.276;2023-06-19T07:21:27;711.42;;;444.98;;
57231;SDS011;43488;46.934;8.276;2023-06-19T07:23:56;702.00;;;385.50;;
57231;SDS011;43488;46.934;8.276;2023-06-19T07:26:24;695.00;;;378.85;;
57231;SDS011;43488;46.934;8.276;2023-06-19T07:28:51;703.80;;;387.65;;
57231;SDS011;43488;46.934;8.276;2023-06-19T07:31:18;700.90;;;389.15;;
57231;SDS011;43488;46.934;8.276;2023-06-19T07:33:46;704.65;;;384.15;;
57231;SDS011;43488;46.934;8.276;2023-06-19T07:36:13;719.63;;;392.27;;
57231;SDS011;43488;46.934;8.276;2023-06-19T07:38:42;732.85;;;449.40;;
57231;SDS011;43488;46.934;8.276;2023-06-19T07:41:10;733.80;;;449.60;;
57231;SDS011;43488;46.934;8.276;2023-06-19T07:43:38;735.45;;;444.98;;
57231;SDS011;43488;46.934;8.276;2023-06-19T07:46:05;716.60;;;389.38;;
57231;SDS011;43488;46.934;8.276;2023-06-19T07:48:32;723.83;;;398.33;;
57231;SDS011;43488;46.934;8.276;2023-06-19T07:51:00;740.08;;;466.52;;
57231;SDS011;43488;46.934;8.276;2023-06-19T07:53:27;732.17;;;442.80;;
57231;SDS011;43488;46.934;8.276;2023-06-19T07:55:54;722.13;;;396.23;;
57231;SDS011;43488;46.934;8.276;2023-06-19T07:58:21;741.80;;;455.15;;
57231;SDS011;43488;46.934;8.276;2023-06-19T08:00:49;732.50;;;463.92;;
57231;SDS011;43488;46.934;8.276;2023-06-19T08:03:16;722.20;;;454.52;;
57231;SDS011;43488;46.934;8.276;2023-06-19T08:05:44;706.60;;;409.38;;
57231;SDS011;43488;46.934;8.276;2023-06-19T08:08:11;720.53;;;465.95;;
57231;SDS011;43488;46.934;8.276;2023-06-19T08:10:40;722.60;;;448.98;;
57231;SDS011;43488;46.934;8.276;2023-06-19T08:13:07;696.30;;;394.05;;
57231;SDS011;43488;46.934;8.276;2023-06-19T08:15:34;718.45;;;460.48;;
57231;SDS011;43488;46.934;8.276;2023-06-19T08:18:02;705.47;;;407.15;;
57231;SDS011;43488;46.934;8.276;2023-06-19T08:20:29;711.65;;;454.08;;
57231;SDS011;43488;46.934;8.276;2023-06-19T08:22:57;704.33;;;395.27;;
57231;SDS011;43488;46.934;8.276;2023-06-19T08:25:24;701.40;;;401.77;;
57231;SDS011;43488;46.934;8.276;2023-06-19T08:27:51;701.53;;;390.27;;
57231;SDS011;43488;46.934;8.276;2023-06-19T08:30:19;722.10;;;458.75;;
57231;SDS011;43488;46.934;8.276;2023-06-19T08:32:47;718.67;;;453.08;;
57231;SDS011;43488;46.934;8.276;2023-06-19T08:35:15;706.67;;;405.67;;
57231;SDS011;43488;46.934;8.276;2023-06-19T08:37:42;701.63;;;400.60;;
57231;SDS011;43488;46.934;8.276;2023-06-19T08:40:11;725.00;;;460.10;;
57231;SDS011;43488;46.934;8.276;2023-06-19T08:42:40;708.90;;;396.25;;
57231;SDS011;43488;46.934;8.276;2023-06-19T08:45:09;718.05;;;455.00;;
57231;SDS011;43488;46.934;8.276;2023-06-19T08:47:37;710.45;;;402.67;;
57231;SDS011;43488;46.934;8.276;2023-06-19T08:50:04;712.22;;;410.52;;
57231;SDS011;43488;46.934;8.276;2023-06-19T08:52:32;694.47;;;394.05;;
57231;SDS011;43488;46.934;8.276;2023-06-19T08:54:59;701.70;;;411.00;;
57231;SDS011;43488;46.934;8.276;2023-06-19T08:58:01;717.10;;;453.27;;
57231;SDS011;43488;46.934;8.276;2023-06-19T09:00:27;718.30;;;461.27;;
57231;SDS011;43488;46.934;8.276;2023-06-19T09:03:02;698.22;;;398.00;;
57231;SDS011;43488;46.934;8.276;2023-06-19T09:05:30;701.20;;;410.85;;
57231;SDS011;43488;46.934;8.276;2023-06-19T09:07:58;719.55;;;457.27;;
57231;SDS011;43488;46.934;8.276;2023-06-19T09:10:29;698.13;;;404.38;;
57231;SDS011;43488;46.934;8.276;2023-06-19T09:13:01;716.13;;;460.08;;
57231;SDS011;43488;46.934;8.276;2023-06-19T09:15:31;719.88;;;461.98;;
57231;SDS011;43488;46.934;8.276;2023-06-19T09:18:11;714.25;;;409.63;;
57231;SDS011;43488;46.934;8.276;2023-06-19T09:20:40;712.53;;;419.30;;
57231;SDS011;43488;46.934;8.276;2023-06-19T09:23:13;712.65;;;407.15;;
57231;SDS011;43488;46.934;8.276;2023-06-19T09:25:47;710.35;;;404.13;;
57231;SDS011;43488;46.934;8.276;2023-06-19T09:28:25;726.00;;;459.85;;
57231;SDS011;43488;46.934;8.276;2023-06-19T09:30:58;710.08;;;425.33;;
57231;SDS011;43488;46.934;8.276;2023-06-19T09:33:30;702.25;;;409.25;;
57231;SDS011;43488;46.934;8.276;2023-06-19T09:36:02;722.38;;;458.48;;
57231;SDS011;43488;46.934;8.276;2023-06-19T09:38:32;720.20;;;465.23;;
57231;SDS011;43488;46.934;8.276;2023-06-19T09:41:05;706.75;;;420.85;;
57231;SDS011;43488;46.934;8.276;2023-06-19T09:43:36;683.33;;;409.65;;
57231;SDS011;43488;46.934;8.276;2023-06-19T09:46:09;711.47;;;463.58;;
57231;SDS011;43488;46.934;8.276;2023-06-19T09:48:41;690.13;;;417.65;;
57231;SDS011;43488;46.934;8.276;2023-06-19T09:53:50;650.35;;;415.73;;
57231;SDS011;43488;46.934;8.276;2023-06-19T09:56:17;634.50;;;471.48;;
57231;SDS011;43488;46.934;8.276;2023-06-19T09:58:48;639.67;;;476.95;;
57231;SDS011;43488;46.934;8.276;2023-06-19T10:01:19;634.88;;;466.98;;
57231;SDS011;43488;46.934;8.276;2023-06-19T10:03:47;641.67;;;425.02;;
57231;SDS011;43488;46.934;8.276;2023-06-19T10:06:15;661.28;;;433.95;;
57231;SDS011;43488;46.934;8.276;2023-06-19T10:08:44;643.88;;;474.10;;
57231;SDS011;43488;46.934;8.276;2023-06-19T10:11:11;663.58;;;477.65;;
57231;SDS011;43488;46.934;8.276;2023-06-19T10:13:40;642.72;;;477.65;;
57231;SDS011;43488;46.934;8.276;2023-06-19T10:16:18;649.83;;;438.05;;
57231;SDS011;43488;46.934;8.276;2023-06-19T10:18:48;639.35;;;433.48;;
57231;SDS011;43488;46.934;8.276;2023-06-19T10:21:17;652.10;;;457.23;;
57231;SDS011;43488;46.934;8.276;2023-06-19T10:23:56;648.08;;;443.33;;
57231;SDS011;43488;46.934;8.276;2023-06-19T10:26:31;652.78;;;434.35;;
57231;SDS011;43488;46.934;8.276;2023-06-19T10:29:06;641.08;;;479.30;;
57231;SDS011;43488;46.934;8.276;2023-06-19T10:31:43;652.92;;;446.48;;
57231;SDS011;43488;46.934;8.276;2023-06-19T10:34:11;648.80;;;438.27;;
57231;SDS011;43488;46.934;8.276;2023-06-19T10:36:38;646.38;;;437.85;;
57231;SDS011;43488;46.934;8.276;2023-06-19T10:39:07;644.53;;;487.38;;
57231;SDS011;43488;46.934;8.276;2023-06-19T10:41:35;635.25;;;482.15;;
57231;SDS011;43488;46.934;8.276;2023-06-19T10:44:07;641.72;;;474.95;;
57231;SDS011;43488;46.934;8.276;2023-06-19T10:46:41;641.40;;;484.80;;
57231;SDS011;43488;46.934;8.276;2023-06-19T10:49:08;650.85;;;446.85;;
57231;SDS011;43488;46.934;8.276;2023-06-19T10:51:38;646.72;;;495.23;;
57231;SDS011;43488;46.934;8.276;2023-06-19T10:54:08;662.50;;;480.42;;
57231;SDS011;43488;46.934;8.276;2023-06-19T10:56:36;651.08;;;450.90;;
57231;SDS011;43488;46.934;8.276;2023-06-19T10:59:04;637.45;;;481.20;;
57231;SDS011;43488;46.934;8.276;2023-06-19T11:01:38;648.33;;;441.35;;
57231;SDS011;43488;46.934;8.276;2023-06-19T11:04:10;659.72;;;458.15;;
57231;SDS011;43488;46.934;8.276;2023-06-19T11:06:40;650.92;;;480.33;;
57231;SDS011;43488;46.934;8.276;2023-06-19T11:09:12;656.88;;;453.65;;
57231;SDS011;43488;46.934;8.276;2023-06-19T11:11:44;660.55;;;450.90;;
57231;SDS011;43488;46.934;8.276;2023-06-19T11:14:13;648.10;;;442.80;;
57231;SDS011;43488;46.934;8.276;2023-06-19T11:16:44;645.38;;;491.17;;
57231;SDS011;43488;46.934;8.276;2023-06-19T11:21:49;649.22;;;495.13;;
57231;SDS011;43488;46.934;8.276;2023-06-19T11:24:18;653.75;;;444.55;;
57231;SDS011;43488;46.934;8.276;2023-06-19T11:26:47;657.83;;;458.45;;
57231;SDS011;43488;46.934;8.276;2023-06-19T11:29:17;651.13;;;478.67;;
57231;SDS011;43488;46.934;8.276;2023-06-19T11:31:53;638.78;;;484.38;;
57231;SDS011;43488;46.934;8.276;2023-06-19T11:34:35;639.75;;;467.27;;
57231;SDS011;43488;46.934;8.276;2023-06-19T11:37:16;658.97;;;470.92;;
57231;SDS011;43488;46.934;8.276;2023-06-19T11:39:45;645.30;;;488.08;;
57231;SDS011;43488;46.934;8.276;2023-06-19T11:42:13;664.13;;;461.40;;
57231;SDS011;43488;46.934;8.276;2023-06-19T11:44:53;658.23;;;452.20;;
57231;SDS011;43488;46.934;8.276;2023-06-19T11:47:33;671.00;;;496.77;;
57231;SDS011;43488;46.934;8.276;2023-06-19T11:50:03;661.70;;;498.30;;
57231;SDS011;43488;46.934;8.276;2023-06-19T11:52:31;664.13;;;452.70;;
57231;SDS011;43488;46.934;8.276;2023-06-19T11:54:59;665.22;;;445.63;;
57231;SDS011;43488;46.934;8.276;2023-06-19T11:57:26;665.38;;;447.13;;
57231;SDS011;43488;46.934;8.276;2023-06-19T11:59:54;673.42;;;456.80;;
57231;SDS011;43488;46.934;8.276;2023-06-19T12:02:22;704.78;;;459.02;;
57231;SDS011;43488;46.934;8.276;2023-06-19T12:04:51;717.13;;;464.77;;
57231;SDS011;43488;46.934;8.276;2023-06-19T12:07:18;738.17;;;462.17;;
57231;SDS011;43488;46.934;8.276;2023-06-19T12:09:46;734.35;;;452.95;;
57231;SDS011;43488;46.934;8.276;2023-06-19T12:12:14;733.83;;;449.90;;
57231;SDS011;43488;46.934;8.276;2023-06-19T12:14:42;740.38;;;446.88;;
57231;SDS011;43488;46.934;8.276;2023-06-19T12:17:10;739.42;;;446.08;;
57231;SDS011;43488;46.934;8.276;2023-06-19T12:19:38;748.42;;;458.02;;
57231;SDS011;43488;46.934;8.276;2023-06-19T12:22:09;779.22;;;495.73;;
57231;SDS011;43488;46.934;8.276;2023-06-19T12:24:36;771.00;;;478.02;;
57231;SDS011;43488;46.934;8.276;2023-06-19T12:27:04;776.83;;;495.38;;
57231;SDS011;43488;46.934;8.276;2023-06-19T12:29:31;750.10;;;454.58;;
57231;SDS011;43488;46.934;8.276;2023-06-19T12:32:01;772.10;;;490.25;;
57231;SDS011;43488;46.934;8.276;2023-06-19T12:34:29;746.78;;;452.95;;
57231;SDS011;43488;46.934;8.276;2023-06-19T12:36:57;741.83;;;452.35;;
57231;SDS011;43488;46.934;8.276;2023-06-19T12:39:24;775.13;;;492.52;;
57231;SDS011;43488;46.934;8.276;2023-06-19T12:41:52;772.70;;;494.88;;
57231;SDS011;43488;46.934;8.276;2023-06-19T12:44:21;764.65;;;495.40;;
57231;SDS011;43488;46.934;8.276;2023-06-19T12:46:49;760.97;;;495.20;;
57231;SDS011;43488;46.934;8.276;2023-06-19T12:49:17;734.63;;;455.48;;
57231;SDS011;43488;46.934;8.276;2023-06-19T12:51:45;738.97;;;467.15;;
57231;SDS011;43488;46.934;8.276;2023-06-19T12:54:17;735.88;;;454.80;;
57231;SDS011;43488;46.934;8.276;2023-06-19T12:56:45;737.05;;;462.85;;
57231;SDS011;43488;46.934;8.276;2023-06-19T12:59:12;739.20;;;462.08;;
57231;SDS011;43488;46.934;8.276;2023-06-19T13:01:40;738.72;;;462.25;;
57231;SDS011;43488;46.934;8.276;2023-06-19T13:04:09;763.95;;;486.73;;
57231;SDS011;43488;46.934;8.276;2023-06-19T13:06:38;734.28;;;445.42;;
57231;SDS011;43488;46.934;8.276;2023-06-19T13:09:06;764.63;;;482.80;;
57231;SDS011;43488;46.934;8.276;2023-06-19T13:11:34;744.50;;;455.10;;
57231;SDS011;43488;46.934;8.276;2023-06-19T13:14:02;773.10;;;485.35;;
57231;SDS011;43488;46.934;8.276;2023-06-19T13:16:30;744.38;;;436.80;;
57231;SDS011;43488;46.934;8.276;2023-06-19T13:18:58;752.38;;;434.60;;
57231;SDS011;43488;46.934;8.276;2023-06-19T13:21:25;758.25;;;452.52;;
57231;SDS011;43488;46.934;8.276;2023-06-19T13:23:52;758.22;;;432.25;;
57231;SDS011;43488;46.934;8.276;2023-06-19T13:26:20;787.65;;;466.10;;
57231;SDS011;43488;46.934;8.276;2023-06-19T13:28:47;795.38;;;474.02;;
57231;SDS011;43488;46.934;8.276;2023-06-19T13:31:14;775.42;;;442.58;;
57231;SDS011;43488;46.934;8.276;2023-06-19T13:33:42;827.50;;;496.70;;
57231;SDS011;43488;46.934;8.276;2023-06-19T13:36:09;775.13;;;433.40;;
57231;SDS011;43488;46.934;8.276;2023-06-19T13:38:36;784.17;;;420.25;;
57231;SDS011;43488;46.934;8.276;2023-06-19T13:41:03;825.65;;;478.10;;
57231;SDS011;43488;46.934;8.276;2023-06-19T13:43:31;784.50;;;397.65;;
57231;SDS011;43488;46.934;8.276;2023-06-19T13:45:59;793.92;;;422.05;;
57231;SDS011;43488;46.934;8.276;2023-06-19T13:48:27;827.45;;;471.00;;
57231;SDS011;43488;46.934;8.276;2023-06-19T13:50:54;826.20;;;470.13;;
57231;SDS011;43488;46.934;8.276;2023-06-19T13:53:22;789.65;;;410.23;;
57231;SDS011;43488;46.934;8.276;2023-06-19T13:55:50;761.53;;;422.55;;
57231;SDS011;43488;46.934;8.276;2023-06-19T13:58:17;725.28;;;413.45;;
57231;SDS011;43488;46.934;8.276;2023-06-19T14:00:44;710.08;;;475.58;;
57231;SDS011;43488;46.934;8.276;2023-06-19T14:03:12;700.15;;;416.23;;
57231;SDS011;43488;46.934;8.276;2023-06-19T14:05:40;702.75;;;423.17;;
57231;SDS011;43488;46.934;8.276;2023-06-19T14:08:07;787.58;;;454.05;;
57231;SDS011;43488;46.934;8.276;2023-06-19T14:10:38;773.47;;;448.38;;
57231;SDS011;43488;46.934;8.276;2023-06-19T14:13:05;783.83;;;378.88;;
57231;SDS011;43488;46.934;8.276;2023-06-19T14:15:33;791.03;;;385.17;;
57231;SDS011;43488;46.934;8.276;2023-06-19T14:18:00;825.10;;;446.98;;